Pagrindinis puslapis
METAR-TAF:

METAR-TAF

Oro uostai :

Soldotna, Aliaska, Jungtinės Amerikos Valstijos

platuma: 60-29N, ilguma: 151-02W, Aukštis: 33 m

Dabartinis oras

Ataskaita buvo paskelbta 38 minutes, ne 04:56 UTC
Vėjas 4 kt nuo kintamojo kryptimis
Temperatūra 11°C
Drėgmė 87%
Slėgis 986 hPa
Matomumas: 16.1 km
Mažai debesys ne aukštis 5000 ft
Apsiniaukę ne aukštis 6500 ft

METAR: PASX 210456Z AUTO VRB04KT 10SM FEW050 OVC065 11/09 A2911 RMK AO2 SLP866 T01110089

Laikas: 21:34 (05:34 UTC)


TAF: trūkstamas

Orai ataskaitas ir orų prognozės (METAR, TAF).

turimą stotys yra geltonos ir raudonos taškus žemėlapyje.

Perkelti pele per norėdami pamatyti stoties vardą.

Tada spustelėkite, norėdami matyti oro stebėjimo ir prognozės.

Norėdami pakeisti žemėlapį: spustelėkite ant žalios mygtukų su juodo kryžiaus žemyn,; žalią mygtuką su brūkšneliu, jei norite nutolinti; arba žalių rodyklių gretimoms žemėlapius.


METAR-TAF: